Nearby METAR Reports

 

EGNX - East Midlands, United Kingdom
Distance from station: SW 12mi, 19km
Updated: 22/05/2022 02:20
Clear
Clear
 Wind from SSW
Wind: SSW 13 km/h
Temperature: 11°C
Dew Point: 6°C
Humidity: 72%
Barometer: 1017 hPa
Summary: Clear
Visibility: greater than 10 km
2022/05/22 01:20 EGNX 220120Z 21007KT CAVOK 11/06 Q1017
EGYE - Barkston Heath R, United Kingdom
Distance from station: E 24mi, 39km
Updated: 20/05/2022 10:50
NOT Current
Overcast
Overcast
 Wind from WSW
Wind: WSW 17 km/h
Barometer: 1016 hPa
Clouds: Overcast
Visibility: 10 km
Cloud details: Few Clouds 610 m
Partly cloudy 1219 m
Overcast 2438 m
2022/05/20 09:50 EGYE 200950Z 24009KT 9999 FEW020 SCT040 OVC080 ///// Q1016 RMK BLU
 
EGYD - Cranwell Raf, United Kingdom
Distance from station: ENE 28mi, 44km
Updated: 22/05/2022 02:20
Overcast
Overcast
 Wind from WSW
Wind: WSW 11 km/h
Temperature: 11°C
Dew Point: 8°C
Humidity: 82%
Barometer: 1016 hPa
Clouds: Overcast
Visibility: 10 km
Cloud details: Overcast 6401 m
2022/05/22 01:20 EGYD 220120Z AUTO 25006KT 9999 OVC210/// 11/08 Q1016
EGXW - Waddington Raf, United Kingdom
Distance from station: ENE 31mi, 50km
Updated: 22/05/2022 01:50
Clear
Clear
 Wind from SW
Wind: SW 17 km/h
Temperature: 13°C
Dew Point: 8°C
Humidity: 72%
Barometer: 1016 hPa
Clouds: Clear
Visibility: 10 km
2022/05/22 00:50 EGXW 220050Z AUTO 22009KT 9999 NCD 13/08 Q1016
 
EGSY - Yorkshire/Humber, United Kingdom
Distance from station: NNW 33mi, 52km
Updated: 21/05/2022 16:50
NOT Current
Few Clouds
Few Clouds
 Wind from WNW
Wind: WNW 20 km/h
Temperature: 16°C
Dew Point: 6°C
Humidity: 52%
Barometer: 1020 hPa
Clouds: Few Clouds
Visibility: 10 km
Cloud details: Few Clouds 914 m
2022/05/21 15:50 EGSY 211550Z 30011KT 9999 FEW030 16/06 Q1020
EGXP - Scampton Raf, United Kingdom
Distance from station: NE 35mi, 56km
Updated: 22/05/2022 01:50
Few Clouds
Few Clouds
 Wind from SSW
Wind: SSW 13 km/h
Temperature: 12°C
Dew Point: 8°C
Humidity: 77%
Barometer: 1016 hPa
Clouds: Few Clouds
Visibility: 10 km
Cloud details: Few Clouds 1524 m
2022/05/22 00:50 EGXP 220050Z AUTO 20007KT 9999 // FEW050/// 12/08 Q1016
 
EGXT - Wittering Raf, United Kingdom
Distance from station: SE 37mi, 59km
Updated: 22/05/2022 01:50
Mostly cloudy
Mostly cloudy
 Wind from SW
Wind: SW 9 km/h
Temperature: 10°C
Wind Chill: 9°C
Dew Point: 7°C
Humidity: 82%
Barometer: 1017 hPa
Clouds: Mostly cloudy
Visibility: 10 km
Cloud details: Mostly cloudy 7010 m
2022/05/22 00:50 EGXT 220050Z AUTO 22005KT 9999 BKN230/// 10/07 Q1017
EGCN - Doncaster Sheffi, United Kingdom
Distance from station: N 37mi, 60km
Updated: 22/05/2022 02:20
Clear
Clear
 Wind from S
Wind: S 9 km/h
Temperature: 10°C
Wind Chill: 9°C
Dew Point: 8°C
Humidity: 88%
Barometer: 1017 hPa
Summary: Clear
Visibility: greater than 10 km
2022/05/22 01:20 EGCN 220120Z 19005KT CAVOK 10/08 Q1017
 
EGBB - Birmingham Airpo, United Kingdom
Distance from station: SW 42mi, 67km
Updated: 22/05/2022 02:20
Clear
Clear
 Wind from SSW
Wind: SSW 6 km/h
Temperature: 10°C
Dew Point: 7°C
Humidity: 82%
Barometer: 1017 hPa
Summary: Clear
Visibility: greater than 10 km
2022/05/22 01:20 EGBB 220120Z 21003KT 180V260 CAVOK 10/07 Q1017
EGXC - Coningsby Raf, United Kingdom
Distance from station: ENE 42mi, 68km
Updated: 22/05/2022 01:50
Mostly cloudy
Mostly cloudy
 Wind from SSW
Wind: SSW 9 km/h
Temperature: 10°C
Wind Chill: 9°C
Dew Point: 8°C
Humidity: 88%
Barometer: 1017 hPa
Clouds: Mostly cloudy
Visibility: 10 km
Cloud details: Mostly cloudy 1372 m
2022/05/22 00:50 EGXC 220050Z 21005KT 9999 BKN045 10/08 Q1017 RMK BLU